createdAt,value
2022-12-08T00:00:40.797Z,77.05
2022-12-08T00:01:42.536Z,76.64
2022-12-08T00:02:44.515Z,77.00
2022-12-08T00:03:47.006Z,77.10
2022-12-08T00:05:06.928Z,77.09
2022-12-08T00:06:37.809Z,76.88
2022-12-08T00:07:57.683Z,76.46
2022-12-08T00:09:17.880Z,76.75
2022-12-08T00:10:47.953Z,76.86
2022-12-08T00:11:41.101Z,76.73
2022-12-08T00:12:42.516Z,77.02
2022-12-08T00:13:44.210Z,76.17
2022-12-08T00:14:47.601Z,76.56
2022-12-08T00:15:52.071Z,76.24
2022-12-08T00:16:54.529Z,77.22
2022-12-08T00:17:56.181Z,77.20
2022-12-08T00:18:57.607Z,76.88
2022-12-08T00:19:59.208Z,76.47
2022-12-08T00:21:01.172Z,76.42
2022-12-08T00:22:03.690Z,76.93
2022-12-08T00:23:05.193Z,76.96
2022-12-08T00:24:07.096Z,76.93
2022-12-08T00:25:08.752Z,77.07
2022-12-08T00:26:10.246Z,77.15
2022-12-08T00:27:13.693Z,76.35
2022-12-08T00:28:15.397Z,76.44
2022-12-08T00:29:17.945Z,76.72
2022-12-08T00:30:19.477Z,76.72
2022-12-08T00:31:20.969Z,77.10
2022-12-08T00:32:22.892Z,76.46
2022-12-08T00:33:24.700Z,76.52
2022-12-08T00:34:26.347Z,76.09
2022-12-08T00:35:27.777Z,77.05
2022-12-08T00:36:29.519Z,76.67
2022-12-08T00:37:31.271Z,77.22
2022-12-08T00:38:32.708Z,76.98
2022-12-08T00:39:34.117Z,76.54
2022-12-08T00:40:35.580Z,77.02
2022-12-08T00:41:55.720Z,76.65
2022-12-08T00:42:57.144Z,76.35
2022-12-08T00:43:58.562Z,76.49
2022-12-08T00:44:59.995Z,76.89
2022-12-08T00:46:01.593Z,76.90
2022-12-08T00:47:03.451Z,75.93
2022-12-08T00:48:05.282Z,76.72
2022-12-08T00:49:07.184Z,76.28
2022-12-08T00:50:09.432Z,77.12
2022-12-08T00:51:10.853Z,76.69
2022-12-08T00:52:13.256Z,76.48
2022-12-08T00:53:14.678Z,76.92
2022-12-08T00:54:16.673Z,76.72
2022-12-08T00:55:18.124Z,76.55
2022-12-08T00:56:19.569Z,76.79
2022-12-08T00:57:21.005Z,76.47
2022-12-08T00:58:22.426Z,76.57
2022-12-08T00:59:23.845Z,76.82
2022-12-08T01:00:26.184Z,76.60
2022-12-08T01:01:27.914Z,77.07
2022-12-08T01:02:29.834Z,76.63
2022-12-08T01:03:31.299Z,76.45
2022-12-08T01:04:32.764Z,76.55
2022-12-08T01:05:34.189Z,76.89
2022-12-08T01:06:36.312Z,77.15
2022-12-08T01:07:38.173Z,77.18
2022-12-08T01:08:40.901Z,76.74
2022-12-08T01:09:42.546Z,76.75
2022-12-08T01:10:43.966Z,76.79
2022-12-08T01:11:46.285Z,76.77
2022-12-08T01:12:47.711Z,76.74
2022-12-08T01:13:49.165Z,76.76
2022-12-08T01:14:50.576Z,76.35
2022-12-08T01:15:51.972Z,77.60
2022-12-08T01:16:53.618Z,77.22
2022-12-08T01:17:55.586Z,76.91
2022-12-08T01:18:58.733Z,77.44
2022-12-08T01:20:02.305Z,76.73
2022-12-08T01:21:05.832Z,77.50
2022-12-08T01:22:07.262Z,77.31
2022-12-08T01:23:08.694Z,77.55
2022-12-08T01:24:15.211Z,77.57
2022-12-08T01:25:16.688Z,76.95
2022-12-08T01:26:19.652Z,77.76
2022-12-08T01:27:21.228Z,76.72
2022-12-08T01:28:22.641Z,76.78
2022-12-08T01:29:24.262Z,77.02
2022-12-08T01:30:25.740Z,77.55
2022-12-08T01:31:27.220Z,76.55
2022-12-08T01:32:29.503Z,76.14
2022-12-08T01:33:31.970Z,76.62
2022-12-08T01:34:33.441Z,76.65
2022-12-08T01:35:34.930Z,76.83
2022-12-08T01:36:37.276Z,76.83
2022-12-08T01:37:38.709Z,76.68
2022-12-08T01:38:40.118Z,76.54
2022-12-08T01:39:41.787Z,76.69
2022-12-08T01:40:43.518Z,76.70
2022-12-08T01:41:47.098Z,77.18
2022-12-08T01:42:49.909Z,76.71
2022-12-08T01:44:08.266Z,76.60
2022-12-08T01:45:24.714Z,76.10
2022-12-08T01:46:27.356Z,76.19
2022-12-08T01:47:49.986Z,75.83
2022-12-08T01:49:01.105Z,76.25
2022-12-08T01:50:04.134Z,76.23
2022-12-08T01:51:06.977Z,76.23
2022-12-08T01:52:24.091Z,76.30
2022-12-08T01:53:32.833Z,76.62
2022-12-08T01:54:39.716Z,76.81
2022-12-08T01:55:47.210Z,76.21
2022-12-08T01:56:57.434Z,77.31
2022-12-08T01:58:06.069Z,77.23
2022-12-08T01:59:07.684Z,76.87
2022-12-08T02:00:12.326Z,76.25
2022-12-08T02:01:14.312Z,77.12
2022-12-08T02:02:16.134Z,76.42
2022-12-08T02:03:58.378Z,76.57
2022-12-08T02:05:00.377Z,76.83
2022-12-08T02:06:03.343Z,77.53
2022-12-08T02:07:08.555Z,77.04
2022-12-08T02:08:13.066Z,77.56
2022-12-08T02:09:14.822Z,76.82
2022-12-08T02:10:19.234Z,76.93
2022-12-08T02:11:21.509Z,77.19
2022-12-08T02:12:23.510Z,76.36
2022-12-08T02:13:25.631Z,76.32
2022-12-08T02:14:27.061Z,76.21
2022-12-08T02:15:40.754Z,76.61
2022-12-08T02:16:54.012Z,76.28
2022-12-08T02:18:04.291Z,76.68
2022-12-08T02:19:31.971Z,76.57
2022-12-08T02:20:52.346Z,76.72
2022-12-08T02:22:04.482Z,76.13
2022-12-08T02:23:19.216Z,77.32
2022-12-08T02:24:40.438Z,76.64
2022-12-08T02:25:51.793Z,76.70
2022-12-08T02:27:20.935Z,76.98
2022-12-08T02:28:47.272Z,76.51
2022-12-08T02:30:07.602Z,76.40
2022-12-08T02:31:28.132Z,76.79
2022-12-08T02:32:44.659Z,76.54
2022-12-08T02:33:48.965Z,76.47
2022-12-08T02:34:59.206Z,76.01
2022-12-08T02:36:15.949Z,76.88
2022-12-08T02:37:43.703Z,76.49
2022-12-08T02:39:00.656Z,76.81
2022-12-08T02:40:08.621Z,77.13
2022-12-08T02:41:19.130Z,76.58
2022-12-08T02:42:50.336Z,76.17
2022-12-08T02:44:06.452Z,77.09
2022-12-08T02:45:13.937Z,77.67
2022-12-08T02:46:24.673Z,77.11
2022-12-08T02:47:28.523Z,77.75
2022-12-08T02:48:30.833Z,77.65
2022-12-08T02:49:33.795Z,78.33
2022-12-08T02:50:35.391Z,78.47
2022-12-08T02:51:36.845Z,77.54
2022-12-08T02:52:44.163Z,78.54
2022-12-08T02:53:46.739Z,77.81
2022-12-08T02:54:56.435Z,77.57
2022-12-08T02:56:14.346Z,78.20
2022-12-08T02:57:40.808Z,78.35
2022-12-08T02:58:45.259Z,77.99
2022-12-08T03:00:09.806Z,78.24
2022-12-08T03:01:43.407Z,78.14
2022-12-08T03:03:33.171Z,78.25
2022-12-08T03:04:41.820Z,78.25
2022-12-08T03:05:55.803Z,78.14
2022-12-08T03:07:01.891Z,77.99
2022-12-08T03:08:22.601Z,77.77
2022-12-08T03:09:38.270Z,77.20
2022-12-08T03:11:01.681Z,77.55
2022-12-08T03:12:14.253Z,77.26
2022-12-08T03:13:20.449Z,76.89
2022-12-08T03:14:22.747Z,76.84
2022-12-08T03:15:24.613Z,76.85
2022-12-08T03:16:30.676Z,76.46
2022-12-08T03:17:32.571Z,76.47
2022-12-08T03:18:39.596Z,77.09
2022-12-08T03:19:42.979Z,77.12
2022-12-08T03:20:47.687Z,77.39
2022-12-08T03:21:53.181Z,76.86
2022-12-08T03:22:59.266Z,76.67
2022-12-08T03:24:04.226Z,76.00
2022-12-08T03:25:07.882Z,75.94
2022-12-08T03:26:15.269Z,76.76
2022-12-08T03:27:26.853Z,77.09
2022-12-08T03:28:28.339Z,76.30
2022-12-08T03:29:31.782Z,76.74
2022-12-08T03:30:38.783Z,77.29
2022-12-08T03:31:45.804Z,76.86
2022-12-08T03:33:02.020Z,76.98
2022-12-08T03:34:05.782Z,77.13
2022-12-08T03:35:17.584Z,76.67
2022-12-08T03:36:19.821Z,76.40
2022-12-08T03:37:21.842Z,76.52
2022-12-08T03:38:23.386Z,76.14
2022-12-08T03:39:24.823Z,76.74
2022-12-08T03:40:26.286Z,75.96
2022-12-08T03:41:27.797Z,75.60
2022-12-08T03:42:29.245Z,76.16
2022-12-08T03:43:30.729Z,76.21
2022-12-08T03:44:32.230Z,75.76
2022-12-08T03:45:33.792Z,75.86
2022-12-08T03:46:35.208Z,76.19
2022-12-08T03:47:37.567Z,75.64
2022-12-08T03:48:39.037Z,76.16
2022-12-08T03:49:40.841Z,75.38
2022-12-08T03:50:42.287Z,76.02
2022-12-08T03:51:43.722Z,75.71
2022-12-08T03:52:45.747Z,75.90
2022-12-08T03:53:48.265Z,76.25
2022-12-08T03:54:49.747Z,75.57
2022-12-08T03:55:53.288Z,75.59
2022-12-08T03:56:54.737Z,75.87
2022-12-08T03:57:56.530Z,75.27
2022-12-08T03:58:58.684Z,76.11
2022-12-08T04:00:00.141Z,75.82
2022-12-08T04:01:01.564Z,76.13
2022-12-08T04:02:03.388Z,75.96
2022-12-08T04:03:06.355Z,76.24
2022-12-08T04:04:07.890Z,76.66
2022-12-08T04:05:09.459Z,76.02
2022-12-08T04:06:10.949Z,76.03
2022-12-08T04:07:12.684Z,76.57
2022-12-08T04:08:14.255Z,76.25
2022-12-08T04:09:15.919Z,75.60
2022-12-08T04:10:17.453Z,76.49
2022-12-08T04:11:19.591Z,76.31
2022-12-08T04:12:21.339Z,76.04
2022-12-08T04:13:22.845Z,76.20
2022-12-08T04:14:24.332Z,76.29
2022-12-08T04:15:25.754Z,76.51
2022-12-08T04:16:28.003Z,75.88
2022-12-08T04:17:29.526Z,75.95
2022-12-08T04:18:31.930Z,75.89
2022-12-08T04:19:33.422Z,76.01
2022-12-08T04:20:39.055Z,75.94
2022-12-08T04:21:40.860Z,76.42
2022-12-08T04:22:42.531Z,76.30
2022-12-08T04:23:44.872Z,75.83
2022-12-08T04:24:46.380Z,75.52
2022-12-08T04:25:49.190Z,76.36
2022-12-08T04:26:51.135Z,76.46
2022-12-08T04:27:52.537Z,76.49
2022-12-08T04:28:53.957Z,76.31
2022-12-08T04:29:55.388Z,76.40
2022-12-08T04:30:56.872Z,76.03
2022-12-08T04:31:58.843Z,76.27
2022-12-08T04:33:00.332Z,76.10
2022-12-08T04:34:01.763Z,75.77
2022-12-08T04:35:03.301Z,76.28
2022-12-08T04:36:06.160Z,76.27
2022-12-08T04:37:07.701Z,76.00
2022-12-08T04:38:09.161Z,75.73
2022-12-08T04:39:10.597Z,76.19
2022-12-08T04:40:12.902Z,76.07
2022-12-08T04:41:14.502Z,76.17
2022-12-08T04:42:16.299Z,76.12
2022-12-08T04:43:17.769Z,76.07
2022-12-08T04:44:19.250Z,76.40
2022-12-08T04:45:20.780Z,75.47
2022-12-08T04:46:22.304Z,76.36
2022-12-08T04:47:23.935Z,76.26
2022-12-08T04:48:25.441Z,76.43
2022-12-08T04:49:26.904Z,76.40
2022-12-08T04:50:28.766Z,76.82
2022-12-08T04:51:30.289Z,76.74
2022-12-08T04:52:32.245Z,76.39
2022-12-08T04:53:33.881Z,76.32
2022-12-08T04:54:35.416Z,76.27
2022-12-08T04:55:41.976Z,76.29
2022-12-08T04:56:43.759Z,76.46
2022-12-08T04:57:45.325Z,76.62
2022-12-08T04:58:47.009Z,76.67
2022-12-08T04:59:48.458Z,76.79
2022-12-08T05:00:50.292Z,76.30
2022-12-08T05:01:52.598Z,76.58
2022-12-08T05:02:54.212Z,75.88
2022-12-08T05:03:57.094Z,76.25
2022-12-08T05:04:58.759Z,76.20
2022-12-08T05:06:01.184Z,76.03
2022-12-08T05:07:02.928Z,76.24
2022-12-08T05:08:05.525Z,76.11
2022-12-08T05:09:07.066Z,76.09
2022-12-08T05:10:08.800Z,76.21
2022-12-08T05:11:11.731Z,75.37
2022-12-08T05:12:13.455Z,75.67
2022-12-08T05:13:14.863Z,76.20
2022-12-08T05:14:18.352Z,75.81
2022-12-08T05:15:20.089Z,75.89
2022-12-08T05:16:21.546Z,75.97
2022-12-08T05:17:23.424Z,76.04
2022-12-08T05:18:24.944Z,76.05
2022-12-08T05:19:26.324Z,75.55
2022-12-08T05:20:28.203Z,76.05
2022-12-08T05:21:30.309Z,75.77
2022-12-08T05:22:31.852Z,74.72
2022-12-08T05:23:33.500Z,75.59
2022-12-08T05:24:35.176Z,75.40
2022-12-08T05:25:36.599Z,75.63
2022-12-08T05:26:38.126Z,75.17
2022-12-08T05:27:39.550Z,75.54
2022-12-08T05:28:42.683Z,75.03
2022-12-08T05:29:44.473Z,74.94
2022-12-08T05:30:45.965Z,75.15
2022-12-08T05:31:47.789Z,75.66
2022-12-08T05:32:49.271Z,75.73
2022-12-08T05:33:51.979Z,76.13
2022-12-08T05:34:53.456Z,75.89
2022-12-08T05:35:54.953Z,75.88
2022-12-08T05:36:56.732Z,76.10
2022-12-08T05:37:58.203Z,75.65
2022-12-08T05:38:59.717Z,76.11
2022-12-08T05:40:01.535Z,75.32
2022-12-08T05:41:03.752Z,75.45
2022-12-08T05:42:05.688Z,76.04
2022-12-08T05:43:07.531Z,75.83
2022-12-08T05:44:09.025Z,75.43
2022-12-08T05:45:10.790Z,76.12
2022-12-08T05:46:13.550Z,75.58
2022-12-08T05:47:15.126Z,75.97
2022-12-08T05:48:16.856Z,75.55
2022-12-08T05:49:18.446Z,75.85
2022-12-08T05:50:19.875Z,75.51
2022-12-08T05:51:24.075Z,75.40
2022-12-08T05:52:25.503Z,75.32
2022-12-08T05:53:27.670Z,75.30
2022-12-08T05:54:29.136Z,75.03
2022-12-08T05:55:30.596Z,75.52
2022-12-08T05:56:32.391Z,75.24
2022-12-08T05:57:33.829Z,74.91
2022-12-08T05:58:35.306Z,75.47
2022-12-08T05:59:37.570Z,75.65
2022-12-08T06:00:39.246Z,75.57
2022-12-08T06:01:41.221Z,76.37
2022-12-08T06:02:42.872Z,76.12
2022-12-08T06:03:44.419Z,76.11
2022-12-08T06:04:45.825Z,76.15
2022-12-08T06:05:47.865Z,75.67
2022-12-08T06:06:49.897Z,76.30
2022-12-08T06:07:51.386Z,76.07
2022-12-08T06:08:53.314Z,76.54
2022-12-08T06:09:54.819Z,76.36
2022-12-08T06:10:56.284Z,76.12
2022-12-08T06:11:57.784Z,76.35
2022-12-08T06:12:59.619Z,75.32
2022-12-08T06:14:02.126Z,75.97
2022-12-08T06:15:04.218Z,75.74
2022-12-08T06:16:07.110Z,76.15
2022-12-08T06:17:08.744Z,75.90
2022-12-08T06:18:10.896Z,76.01
2022-12-08T06:19:12.377Z,75.78
2022-12-08T06:20:13.830Z,76.06
2022-12-08T06:21:16.543Z,76.02
2022-12-08T06:22:17.939Z,75.55
2022-12-08T06:23:19.363Z,75.36
2022-12-08T06:24:20.822Z,76.01
2022-12-08T06:25:22.615Z,75.30
2022-12-08T06:26:24.076Z,76.21
2022-12-08T06:27:25.543Z,76.50
2022-12-08T06:28:27.076Z,76.19
2022-12-08T06:29:28.532Z,77.25
2022-12-08T06:30:29.957Z,76.80
2022-12-08T06:31:31.441Z,77.48
2022-12-08T06:32:32.921Z,77.31
2022-12-08T06:33:34.483Z,77.27
2022-12-08T06:34:35.891Z,76.52
2022-12-08T06:35:37.670Z,76.37
2022-12-08T06:36:39.138Z,76.56
2022-12-08T06:37:40.551Z,75.88
2022-12-08T06:38:43.833Z,75.54
2022-12-08T06:39:45.925Z,75.88
2022-12-08T06:40:54.090Z,75.90
2022-12-08T06:42:13.885Z,75.74
2022-12-08T06:43:15.338Z,76.50
2022-12-08T06:44:16.781Z,75.39
2022-12-08T06:45:18.378Z,76.09
2022-12-08T06:46:20.594Z,75.89
2022-12-08T06:47:26.165Z,76.04
2022-12-08T06:48:27.999Z,75.87
2022-12-08T06:49:29.406Z,76.04
2022-12-08T06:50:30.942Z,76.04
2022-12-08T06:51:32.394Z,76.21
2022-12-08T06:52:37.639Z,76.31
2022-12-08T06:53:44.074Z,75.92
2022-12-08T06:54:45.601Z,74.89
2022-12-08T06:55:59.270Z,75.23
2022-12-08T06:57:01.229Z,75.93
2022-12-08T06:58:02.934Z,75.76
2022-12-08T06:59:04.522Z,75.87
2022-12-08T07:00:06.933Z,75.58
2022-12-08T07:01:12.775Z,75.14
2022-12-08T07:02:14.328Z,74.72
2022-12-08T07:03:16.069Z,74.84
2022-12-08T07:04:17.524Z,74.88
2022-12-08T07:05:19.055Z,75.32
2022-12-08T07:06:25.424Z,74.88
2022-12-08T07:07:26.970Z,75.14
2022-12-08T07:08:28.520Z,74.72
2022-12-08T07:09:31.451Z,74.68
2022-12-08T07:10:33.710Z,75.24
2022-12-08T07:11:35.192Z,75.11
2022-12-08T07:12:36.650Z,75.22
2022-12-08T07:13:38.141Z,74.45
2022-12-08T07:14:39.811Z,75.31
2022-12-08T07:15:41.267Z,75.18
2022-12-08T07:16:42.837Z,74.67
2022-12-08T07:17:44.333Z,75.10
2022-12-08T07:18:45.752Z,75.49
2022-12-08T07:19:50.094Z,76.44
2022-12-08T07:20:51.633Z,75.97
2022-12-08T07:21:53.063Z,75.58
2022-12-08T07:22:54.710Z,76.25
2022-12-08T07:23:58.021Z,75.27
2022-12-08T07:24:59.630Z,75.54
2022-12-08T07:26:05.651Z,75.47
2022-12-08T07:27:07.139Z,75.21
2022-12-08T07:28:11.852Z,75.10
2022-12-08T07:29:13.466Z,74.81
2022-12-08T07:30:15.126Z,75.64
2022-12-08T07:31:20.799Z,75.17
2022-12-08T07:32:22.430Z,75.34
2022-12-08T07:33:24.761Z,75.46
2022-12-08T07:34:26.199Z,75.64
2022-12-08T07:35:27.649Z,74.47
2022-12-08T07:36:29.078Z,74.95
2022-12-08T07:37:30.583Z,74.74
2022-12-08T07:38:32.273Z,75.33
2022-12-08T07:39:33.714Z,74.85
2022-12-08T07:40:37.027Z,75.15
2022-12-08T07:41:38.490Z,76.12
2022-12-08T07:42:39.939Z,75.69
2022-12-08T07:43:42.192Z,75.86
2022-12-08T07:44:43.608Z,75.17
2022-12-08T07:45:45.787Z,75.36
2022-12-08T07:46:47.287Z,75.52
2022-12-08T07:47:48.743Z,75.49
2022-12-08T07:48:50.463Z,75.42
2022-12-08T07:49:51.935Z,74.81
2022-12-08T07:51:01.753Z,75.12
2022-12-08T07:52:03.243Z,74.83
2022-12-08T07:53:05.234Z,74.82
2022-12-08T07:54:06.673Z,74.37
2022-12-08T07:55:09.101Z,74.43
2022-12-08T07:56:12.316Z,74.52
2022-12-08T07:57:14.067Z,74.55
2022-12-08T07:58:15.465Z,74.64
2022-12-08T07:59:16.911Z,75.10
2022-12-08T08:00:19.487Z,75.95
2022-12-08T08:01:26.675Z,76.42
2022-12-08T08:02:28.435Z,76.05
2022-12-08T08:03:30.111Z,75.89
2022-12-08T08:04:31.596Z,75.89
2022-12-08T08:05:33.385Z,75.80
2022-12-08T08:06:35.130Z,75.50
2022-12-08T08:07:37.232Z,75.00
2022-12-08T08:08:38.774Z,75.97
2022-12-08T08:09:40.280Z,75.34
2022-12-08T08:10:41.846Z,75.75
2022-12-08T08:11:55.914Z,75.21
2022-12-08T08:13:04.775Z,75.23
2022-12-08T08:14:06.461Z,75.22
2022-12-08T08:15:09.305Z,74.97
2022-12-08T08:16:13.404Z,74.95
2022-12-08T08:17:15.087Z,74.96
2022-12-08T08:18:16.597Z,75.20
2022-12-08T08:19:19.114Z,74.33
2022-12-08T08:20:21.634Z,74.48
2022-12-08T08:21:45.202Z,75.28
2022-12-08T08:22:48.332Z,75.00
2022-12-08T08:23:49.993Z,74.70
2022-12-08T08:24:51.768Z,75.73
2022-12-08T08:25:53.315Z,75.47
2022-12-08T08:26:55.319Z,74.97
2022-12-08T08:27:59.788Z,75.21
2022-12-08T08:29:01.543Z,74.35
2022-12-08T08:30:06.248Z,74.18
2022-12-08T08:31:08.015Z,74.64
2022-12-08T08:32:09.466Z,74.14
2022-12-08T08:33:11.331Z,74.24
2022-12-08T08:34:12.971Z,75.99
2022-12-08T08:35:14.540Z,75.28
2022-12-08T08:36:15.984Z,75.29
2022-12-08T08:37:17.509Z,75.52
2022-12-08T08:38:19.052Z,74.90
2022-12-08T08:39:20.511Z,75.02
2022-12-08T08:40:22.362Z,74.37
2022-12-08T08:41:23.778Z,74.22
2022-12-08T08:42:25.276Z,74.54
2022-12-08T08:43:32.922Z,74.97
2022-12-08T08:44:39.424Z,75.08
2022-12-08T08:45:40.874Z,74.80
2022-12-08T08:46:42.539Z,74.94
2022-12-08T08:47:44.192Z,74.62
2022-12-08T08:48:45.814Z,73.79
2022-12-08T08:49:47.389Z,74.56
2022-12-08T08:50:48.785Z,74.00
2022-12-08T08:51:50.294Z,74.38
2022-12-08T08:52:51.723Z,74.01
2022-12-08T08:53:53.174Z,73.44
2022-12-08T08:54:54.717Z,74.07
2022-12-08T08:55:56.153Z,74.14
2022-12-08T08:56:58.596Z,74.25
2022-12-08T08:58:00.027Z,74.22
2022-12-08T08:59:03.032Z,74.45
2022-12-08T09:00:05.981Z,74.23
2022-12-08T09:01:07.906Z,74.50
2022-12-08T09:02:17.903Z,75.15
2022-12-08T09:03:19.449Z,75.02
2022-12-08T09:04:22.390Z,74.15
2022-12-08T09:05:23.940Z,75.12
2022-12-08T09:06:25.955Z,74.08
2022-12-08T09:07:27.536Z,74.18
2022-12-08T09:08:29.030Z,74.52
2022-12-08T09:09:31.683Z,74.30
2022-12-08T09:10:33.295Z,74.42
2022-12-08T09:11:34.836Z,73.70
2022-12-08T09:12:36.246Z,74.44
2022-12-08T09:13:38.168Z,74.13
2022-12-08T09:14:40.013Z,74.26
2022-12-08T09:15:41.609Z,74.34
2022-12-08T09:16:43.544Z,73.71
2022-12-08T09:17:45.046Z,73.66
2022-12-08T09:18:48.273Z,73.88
2022-12-08T09:19:49.806Z,73.99
2022-12-08T09:20:51.284Z,73.44
2022-12-08T09:21:53.012Z,74.02
2022-12-08T09:22:54.512Z,74.28
2022-12-08T09:23:58.164Z,74.18
2022-12-08T09:24:59.747Z,75.14
2022-12-08T09:26:02.845Z,75.01
2022-12-08T09:27:04.256Z,75.37
2022-12-08T09:28:05.664Z,75.19
2022-12-08T09:29:07.513Z,74.69
2022-12-08T09:30:09.320Z,74.99
2022-12-08T09:31:10.787Z,73.72
2022-12-08T09:32:12.356Z,73.64
2022-12-08T09:33:13.813Z,74.51
2022-12-08T09:34:15.473Z,74.21
2022-12-08T09:35:17.077Z,74.98
2022-12-08T09:36:19.687Z,75.47
2022-12-08T09:37:21.137Z,75.25
2022-12-08T09:38:22.631Z,74.74
2022-12-08T09:39:24.170Z,74.47
2022-12-08T09:40:27.003Z,75.34
2022-12-08T09:41:48.358Z,75.14
2022-12-08T09:43:21.173Z,75.10
2022-12-08T09:44:59.849Z,75.15
2022-12-08T09:46:07.502Z,74.11
2022-12-08T09:47:28.397Z,73.79
2022-12-08T09:48:42.764Z,74.26
2022-12-08T09:50:16.152Z,73.97
2022-12-08T09:51:17.731Z,73.52
2022-12-08T09:52:24.211Z,73.82
2022-12-08T09:53:50.832Z,73.46
2022-12-08T09:54:52.359Z,73.56
2022-12-08T09:55:58.642Z,73.65
2022-12-08T09:57:05.382Z,73.89
2022-12-08T09:58:15.869Z,73.97
2022-12-08T09:59:31.529Z,73.44
2022-12-08T10:00:40.134Z,73.35
2022-12-08T10:01:42.042Z,73.55
2022-12-08T10:02:47.542Z,73.41
2022-12-08T10:03:49.217Z,73.25
2022-12-08T10:04:51.511Z,72.84
2022-12-08T10:06:04.827Z,73.23
2022-12-08T10:07:39.444Z,73.62
2022-12-08T10:08:55.747Z,73.16
2022-12-08T10:10:36.702Z,73.30
2022-12-08T10:11:41.219Z,73.58
2022-12-08T10:12:49.794Z,73.48
2022-12-08T10:14:16.363Z,73.34
2022-12-08T10:15:36.054Z,73.69
2022-12-08T10:16:47.025Z,72.75
2022-12-08T10:17:51.718Z,72.50
2022-12-08T10:19:01.546Z,72.79
2022-12-08T10:20:15.889Z,72.54
2022-12-08T10:21:25.838Z,72.30
2022-12-08T10:22:33.922Z,71.92
2022-12-08T10:23:39.560Z,72.03
2022-12-08T10:24:48.855Z,72.27
2022-12-08T10:25:56.397Z,72.07
2022-12-08T10:26:58.218Z,72.58
2022-12-08T10:27:59.658Z,72.66
2022-12-08T10:29:04.337Z,72.95
2022-12-08T10:30:13.320Z,73.26
2022-12-08T10:31:16.231Z,72.88
2022-12-08T10:32:20.830Z,72.78
2022-12-08T10:33:22.561Z,72.86
2022-12-08T10:34:24.538Z,72.04
2022-12-08T10:35:56.814Z,72.52
2022-12-08T10:37:00.678Z,71.70
2022-12-08T10:38:03.995Z,71.13
2022-12-08T10:39:35.767Z,70.41
2022-12-08T10:40:43.837Z,69.95
2022-12-08T10:41:47.206Z,69.83
2022-12-08T10:42:55.596Z,70.53
2022-12-08T10:44:00.870Z,71.01
2022-12-08T10:45:15.231Z,70.85
2022-12-08T10:46:20.749Z,71.75
2022-12-08T10:47:25.216Z,71.42
2022-12-08T10:48:29.703Z,71.55
2022-12-08T10:49:32.406Z,72.29
2022-12-08T10:50:33.885Z,71.97
2022-12-08T10:51:38.627Z,72.12
2022-12-08T10:52:40.894Z,72.02
2022-12-08T10:53:46.161Z,71.23
2022-12-08T10:54:52.334Z,71.17
2022-12-08T10:56:08.152Z,71.50
2022-12-08T10:57:20.809Z,70.87
2022-12-08T10:58:31.165Z,70.96
2022-12-08T10:59:34.170Z,71.80
2022-12-08T11:00:39.227Z,71.86
2022-12-08T11:01:42.598Z,71.06
2022-12-08T11:03:22.345Z,70.74
2022-12-08T11:04:26.511Z,70.13
2022-12-08T11:05:33.922Z,69.53
2022-12-08T11:06:38.357Z,69.20
2022-12-08T11:07:47.124Z,69.29
2022-12-08T11:08:52.925Z,69.83
2022-12-08T11:09:58.242Z,70.09
2022-12-08T11:10:59.756Z,69.96
2022-12-08T11:12:22.067Z,70.60
2022-12-08T11:13:27.151Z,69.80
2022-12-08T11:14:32.117Z,69.57
2022-12-08T11:15:38.248Z,70.60
2022-12-08T11:16:43.148Z,70.44
2022-12-08T11:17:48.688Z,70.52
2022-12-08T11:18:58.584Z,70.93
2022-12-08T11:20:03.374Z,71.83
2022-12-08T11:21:14.637Z,71.43
2022-12-08T11:22:22.115Z,71.30
2022-12-08T11:23:26.020Z,71.16
2022-12-08T11:24:32.262Z,71.29
2022-12-08T11:25:36.233Z,71.38
2022-12-08T11:26:38.340Z,71.25
2022-12-08T11:28:04.514Z,70.62
2022-12-08T11:29:08.919Z,70.00
2022-12-08T11:30:19.453Z,70.29
2022-12-08T11:31:35.594Z,70.24
2022-12-08T11:32:40.420Z,69.11
2022-12-08T11:33:44.214Z,69.16
2022-12-08T11:34:58.435Z,68.78
2022-12-08T11:36:11.773Z,69.05
2022-12-08T11:37:28.613Z,68.95
2022-12-08T11:38:40.889Z,68.43
2022-12-08T11:39:48.214Z,67.87
2022-12-08T11:40:58.807Z,67.96
2022-12-08T11:42:03.560Z,68.75
2022-12-08T11:43:40.964Z,68.10
2022-12-08T11:44:49.794Z,68.50
2022-12-08T11:45:59.046Z,68.76
2022-12-08T11:47:24.176Z,68.72
2022-12-08T11:48:33.737Z,69.14
2022-12-08T11:49:40.942Z,68.39
2022-12-08T11:50:49.760Z,69.99
2022-12-08T11:51:57.483Z,69.54
2022-12-08T11:53:01.365Z,69.75
2022-12-08T11:54:07.055Z,69.80
2022-12-08T11:55:23.538Z,68.70
2022-12-08T11:56:32.359Z,69.58
2022-12-08T11:57:33.845Z,70.87
2022-12-08T11:58:41.077Z,70.13
2022-12-08T11:59:49.694Z,69.79
2022-12-08T12:00:51.188Z,70.10
2022-12-08T12:01:53.260Z,70.65
2022-12-08T12:03:04.759Z,70.21
2022-12-08T12:04:31.516Z,70.12
2022-12-08T12:06:13.156Z,69.73
2022-12-08T12:07:23.066Z,70.04
2022-12-08T12:08:45.575Z,69.85
2022-12-08T12:10:24.764Z,69.33
2022-12-08T12:12:16.126Z,69.69
2022-12-08T12:13:32.345Z,69.45
2022-12-08T12:14:52.670Z,69.28
2022-12-08T12:16:26.954Z,70.10
2022-12-08T12:17:51.136Z,70.92
2022-12-08T12:18:57.625Z,70.44
2022-12-08T12:20:03.661Z,69.91
2022-12-08T12:21:16.266Z,69.60
2022-12-08T12:22:22.058Z,69.30
2022-12-08T12:23:31.757Z,69.68
2022-12-08T12:24:37.692Z,69.52
2022-12-08T12:25:50.596Z,69.34
2022-12-08T12:27:15.021Z,69.17
2022-12-08T12:28:17.730Z,69.56
2022-12-08T12:29:23.715Z,69.47
2022-12-08T12:30:27.966Z,69.84
2022-12-08T12:31:34.042Z,68.98
2022-12-08T12:32:46.897Z,68.92
2022-12-08T12:33:50.644Z,70.09
2022-12-08T12:35:00.915Z,69.98
2022-12-08T12:36:06.421Z,69.93
2022-12-08T12:37:12.699Z,69.39
2022-12-08T12:38:44.425Z,69.57
2022-12-08T12:39:53.304Z,69.43
2022-12-08T12:41:02.784Z,69.56
2022-12-08T12:42:05.404Z,69.50
2022-12-08T12:43:12.460Z,68.96
2022-12-08T12:44:13.874Z,69.37
2022-12-08T12:45:18.346Z,69.54
2022-12-08T12:46:23.244Z,69.30
2022-12-08T12:47:52.561Z,69.51
2022-12-08T12:49:34.239Z,69.27
2022-12-08T12:50:41.798Z,69.59
2022-12-08T12:51:47.892Z,69.65
2022-12-08T12:52:49.768Z,69.66
2022-12-08T12:53:51.258Z,69.16
2022-12-08T12:54:52.930Z,69.66
2022-12-08T12:55:58.678Z,69.30
2022-12-08T12:57:09.527Z,68.97
2022-12-08T12:58:34.928Z,68.65
2022-12-08T12:59:55.185Z,68.55
2022-12-08T13:01:13.185Z,69.56
2022-12-08T13:02:21.840Z,70.40
2022-12-08T13:03:24.644Z,69.82
2022-12-08T13:04:37.408Z,69.56
2022-12-08T13:05:50.970Z,69.91
2022-12-08T13:06:52.480Z,70.08
2022-12-08T13:08:14.439Z,69.75
2022-12-08T13:09:22.063Z,70.06
2022-12-08T13:10:26.613Z,69.95
2022-12-08T13:11:28.155Z,69.26
2022-12-08T13:12:30.007Z,69.09
2022-12-08T13:13:31.872Z,69.07
2022-12-08T13:14:37.135Z,69.23
2022-12-08T13:15:41.582Z,69.18
2022-12-08T13:16:43.078Z,69.40
2022-12-08T13:17:46.895Z,69.84
2022-12-08T13:18:57.553Z,69.85
2022-12-08T13:20:02.685Z,69.63
2022-12-08T13:21:05.742Z,70.04
2022-12-08T13:22:27.347Z,69.92
2022-12-08T13:23:37.750Z,70.34
2022-12-08T13:24:39.191Z,70.12
2022-12-08T13:25:44.828Z,69.84
2022-12-08T13:27:10.691Z,70.49
2022-12-08T13:28:31.182Z,70.16
2022-12-08T13:29:37.299Z,70.04
2022-12-08T13:30:50.582Z,69.89
2022-12-08T13:32:07.252Z,69.88
2022-12-08T13:33:19.117Z,69.72
2022-12-08T13:34:41.972Z,70.03
2022-12-08T13:35:50.941Z,70.51
2022-12-08T13:37:01.782Z,70.41
2022-12-08T13:38:03.532Z,69.71
2022-12-08T13:39:06.263Z,70.11
2022-12-08T13:40:18.363Z,71.11
2022-12-08T13:41:34.494Z,70.34
2022-12-08T13:42:58.832Z,70.72
2022-12-08T13:46:26.534Z,70.28
2022-12-08T13:47:34.179Z,71.25
2022-12-08T13:49:36.594Z,70.95
2022-12-08T13:57:34.902Z,70.35
2022-12-08T13:58:38.308Z,69.79
2022-12-08T13:59:44.698Z,70.09
2022-12-08T14:01:13.657Z,69.65
2022-12-08T14:02:36.207Z,69.73
2022-12-08T14:04:30.850Z,70.14
2022-12-08T14:05:40.742Z,69.86
2022-12-08T14:06:48.103Z,69.67
2022-12-08T14:07:53.333Z,69.69
2022-12-08T14:09:03.780Z,69.69
2022-12-08T14:10:18.108Z,69.82
2022-12-08T14:11:43.319Z,69.34
2022-12-08T14:12:48.083Z,69.72
2022-12-08T14:13:49.874Z,70.37
2022-12-08T14:15:15.143Z,69.79
2022-12-08T14:16:36.026Z,69.77
2022-12-08T14:17:40.131Z,69.88
2022-12-08T14:18:41.609Z,69.90
2022-12-08T14:19:52.245Z,69.85
2022-12-08T14:21:20.767Z,69.83